createdAt,value
2018-11-06T00:00:13.027Z,73.16
2018-11-06T00:02:43.005Z,72.81
2018-11-06T00:05:12.804Z,76.11
2018-11-06T00:07:42.359Z,77.13
2018-11-06T00:10:11.771Z,77.05
2018-11-06T00:12:41.944Z,76.84
2018-11-06T00:15:11.827Z,76.29
2018-11-06T00:17:41.955Z,76.54
2018-11-06T00:20:12.464Z,74.05
2018-11-06T00:22:42.584Z,74.07
2018-11-06T00:25:13.804Z,72.45
2018-11-06T00:27:46.216Z,71.24
2018-11-06T00:30:15.697Z,70.31
2018-11-06T00:32:44.994Z,70.77
2018-11-06T00:35:15.734Z,71.05
2018-11-06T00:37:46.128Z,74.71
2018-11-06T00:40:16.120Z,75.65
2018-11-06T00:42:45.518Z,77.34
2018-11-06T00:45:17.547Z,76.91
2018-11-06T00:47:46.927Z,76.12
2018-11-06T00:50:16.028Z,74.28
2018-11-06T00:52:46.070Z,72.11
2018-11-06T00:55:15.764Z,73.90
2018-11-06T00:57:45.053Z,72.43
2018-11-06T01:00:16.018Z,73.41
2018-11-06T01:02:45.190Z,72.37
2018-11-06T01:05:14.494Z,71.53
2018-11-06T01:07:50.532Z,73.57
2018-11-06T01:10:19.891Z,74.57
2018-11-06T01:12:49.180Z,76.84
2018-11-06T01:15:17.953Z,75.98
2018-11-06T01:17:48.810Z,75.23
2018-11-06T01:20:18.673Z,74.04
2018-11-06T01:22:48.972Z,73.76
2018-11-06T01:25:19.039Z,73.30
2018-11-06T01:27:49.226Z,71.24
2018-11-06T01:30:20.057Z,70.24
2018-11-06T01:32:49.935Z,69.47
2018-11-06T01:35:19.009Z,72.76
2018-11-06T01:37:48.535Z,72.88
2018-11-06T01:40:18.899Z,74.21
2018-11-06T01:42:48.955Z,75.03
2018-11-06T01:45:19.441Z,71.54
2018-11-06T01:47:49.679Z,68.62
2018-11-06T01:50:20.716Z,68.49
2018-11-06T01:52:50.619Z,73.72
2018-11-06T01:55:21.707Z,75.34
2018-11-06T01:57:50.710Z,76.37
2018-11-06T02:00:20.082Z,74.02
2018-11-06T02:02:48.672Z,71.08
2018-11-06T02:05:18.177Z,69.85
2018-11-06T02:07:49.631Z,68.26
2018-11-06T02:10:19.719Z,68.80
2018-11-06T02:12:50.360Z,73.06
2018-11-06T02:15:19.182Z,75.33
2018-11-06T02:17:49.516Z,72.70
2018-11-06T02:20:20.592Z,73.75
2018-11-06T02:22:49.527Z,73.40
2018-11-06T02:25:19.435Z,77.37
2018-11-06T02:27:48.533Z,77.32
2018-11-06T02:30:18.477Z,77.47
2018-11-06T02:32:47.656Z,75.41
2018-11-06T02:35:17.717Z,76.85
2018-11-06T02:37:50.329Z,78.18
2018-11-06T02:40:19.998Z,75.71
2018-11-06T02:42:49.859Z,78.26
2018-11-06T02:45:19.558Z,78.83
2018-11-06T02:47:50.107Z,78.73
2018-11-06T02:50:21.224Z,78.55
2018-11-06T02:52:52.099Z,79.01
2018-11-06T02:55:20.668Z,79.79
2018-11-06T02:57:50.510Z,77.77
2018-11-06T03:00:22.267Z,75.83
2018-11-06T03:02:50.820Z,73.06
2018-11-06T03:05:20.390Z,74.29
2018-11-06T03:07:50.954Z,73.90
2018-11-06T03:10:19.603Z,73.84
2018-11-06T03:12:49.738Z,75.36
2018-11-06T03:15:19.161Z,76.63
2018-11-06T03:17:47.892Z,74.01
2018-11-06T03:20:17.981Z,74.91
2018-11-06T03:22:47.775Z,76.97
2018-11-06T03:25:18.093Z,78.01
2018-11-06T03:27:47.103Z,77.88
2018-11-06T03:30:17.531Z,77.95
2018-11-06T03:32:46.058Z,79.02
2018-11-06T03:35:15.754Z,80.28
2018-11-06T03:37:45.786Z,80.82
2018-11-06T03:40:14.986Z,79.07
2018-11-06T03:42:44.463Z,78.99
2018-11-06T03:45:14.407Z,79.77
2018-11-06T03:47:42.995Z,79.12
2018-11-06T03:50:13.524Z,77.95
2018-11-06T03:52:46.094Z,76.28
2018-11-06T03:55:14.674Z,74.91
2018-11-06T03:57:44.711Z,76.35
2018-11-06T04:00:15.301Z,78.37
2018-11-06T04:02:44.960Z,79.86
2018-11-06T04:05:14.354Z,80.73
2018-11-06T04:07:43.992Z,81.28
2018-11-06T04:10:15.355Z,81.18
2018-11-06T04:12:44.445Z,81.73
2018-11-06T04:15:14.567Z,80.90
2018-11-06T04:17:44.644Z,81.33
2018-11-06T04:20:14.155Z,80.74
2018-11-06T04:22:45.008Z,80.68
2018-11-06T04:25:13.824Z,80.03
2018-11-06T04:27:43.439Z,77.00
2018-11-06T04:30:14.593Z,73.47
2018-11-06T04:32:44.521Z,74.96
2018-11-06T04:35:14.774Z,76.61
2018-11-06T04:37:44.415Z,77.24
2018-11-06T04:40:19.666Z,76.76
2018-11-06T04:43:08.900Z,77.59
2018-11-06T04:45:37.396Z,75.07
2018-11-06T04:48:07.455Z,76.54
2018-11-06T04:50:36.211Z,75.32
2018-11-06T04:53:09.318Z,72.71
2018-11-06T04:55:39.255Z,70.48
2018-11-06T04:58:10.041Z,68.99
2018-11-06T05:00:38.999Z,69.54
2018-11-06T05:03:09.380Z,70.15
2018-11-06T05:05:39.482Z,69.21
2018-11-06T05:08:09.332Z,68.26
2018-11-06T05:10:39.020Z,69.94
2018-11-06T05:13:08.561Z,69.40
2018-11-06T05:15:37.706Z,68.26
2018-11-06T05:18:08.116Z,70.14
2018-11-06T05:20:39.251Z,69.75
2018-11-06T05:23:09.320Z,68.41
2018-11-06T05:25:37.993Z,71.07
2018-11-06T05:28:07.068Z,73.34
2018-11-06T05:30:36.628Z,71.11
2018-11-06T05:33:05.578Z,71.15
2018-11-06T05:35:35.530Z,71.11
2018-11-06T05:38:05.014Z,71.12
2018-11-06T05:41:01.244Z,70.97
2018-11-06T05:43:31.519Z,74.62
2018-11-06T05:46:01.396Z,74.78
2018-11-06T05:48:31.883Z,74.81
2018-11-06T05:51:02.017Z,74.24
2018-11-06T05:53:35.661Z,71.99
2018-11-06T05:56:08.071Z,68.43
2018-11-06T05:58:37.495Z,67.73
2018-11-06T06:01:08.759Z,66.57
2018-11-06T06:03:39.583Z,67.62
2018-11-06T06:06:08.501Z,69.54
2018-11-06T06:08:37.344Z,68.34
2018-11-06T06:11:07.738Z,66.97
2018-11-06T06:13:38.196Z,65.83
2018-11-06T06:16:06.944Z,64.24
2018-11-06T06:18:36.274Z,64.64
2018-11-06T06:21:06.654Z,65.46
2018-11-06T06:23:40.033Z,66.25
2018-11-06T06:26:09.491Z,67.14
2018-11-06T06:28:40.357Z,67.52
2018-11-06T06:31:10.676Z,67.22
2018-11-06T06:33:39.970Z,66.74
2018-11-06T06:36:09.096Z,66.49
2018-11-06T06:38:37.877Z,66.39
2018-11-06T06:41:08.793Z,66.25
2018-11-06T06:43:38.162Z,65.51
2018-11-06T06:46:07.288Z,66.11
2018-11-06T06:48:37.818Z,67.57
2018-11-06T06:51:08.040Z,71.56
2018-11-06T06:53:38.113Z,74.21
2018-11-06T06:56:07.516Z,76.80
2018-11-06T06:58:38.026Z,78.64
2018-11-06T07:01:08.667Z,79.00
2018-11-06T07:03:37.945Z,80.43
2018-11-06T07:06:07.449Z,78.67
2018-11-06T07:08:36.983Z,78.33
2018-11-06T07:11:10.563Z,77.29
2018-11-06T07:13:42.442Z,75.17
2018-11-06T07:16:13.073Z,73.59
2018-11-06T07:18:41.706Z,72.55
2018-11-06T07:21:12.696Z,72.33
2018-11-06T07:23:42.479Z,72.03
2018-11-06T07:26:43.966Z,71.87
2018-11-06T07:29:13.388Z,74.22
2018-11-06T07:31:43.944Z,74.77
2018-11-06T07:34:14.472Z,75.57
2018-11-06T07:36:43.304Z,77.16
2018-11-06T07:39:13.010Z,75.92
2018-11-06T07:41:41.664Z,74.20
2018-11-06T07:44:11.951Z,74.25
2018-11-06T07:46:41.250Z,74.60
2018-11-06T07:49:23.242Z,74.17
2018-11-06T07:51:54.327Z,72.92
2018-11-06T07:54:23.418Z,72.62
2018-11-06T07:56:52.716Z,71.55
2018-11-06T07:59:22.622Z,72.05
2018-11-06T08:01:58.746Z,72.20
2018-11-06T08:04:29.744Z,71.01
2018-11-06T08:06:58.250Z,67.34
2018-11-06T08:09:28.792Z,65.39
2018-11-06T08:11:59.291Z,65.05
2018-11-06T08:14:31.540Z,64.71
2018-11-06T08:17:01.441Z,64.44
2018-11-06T08:19:30.283Z,64.32
2018-11-06T08:21:59.631Z,63.55
2018-11-06T08:24:28.383Z,62.69
2018-11-06T08:28:07.417Z,62.13
2018-11-06T08:30:38.073Z,63.28
2018-11-06T08:33:07.504Z,63.66
2018-11-06T08:35:38.600Z,63.75
2018-11-06T08:38:09.103Z,63.76
2018-11-06T08:40:38.724Z,64.58
2018-11-06T08:43:07.815Z,65.64
2018-11-06T08:45:41.656Z,66.45
2018-11-06T08:48:10.942Z,68.01
2018-11-06T08:50:40.930Z,68.86
2018-11-06T08:53:11.903Z,68.79
2018-11-06T08:55:41.523Z,67.76
2018-11-06T08:58:11.713Z,67.12
2018-11-06T09:00:40.808Z,69.30
2018-11-06T09:03:18.306Z,69.68
2018-11-06T09:05:49.144Z,67.57
2018-11-06T09:08:18.700Z,66.17
2018-11-06T09:10:50.134Z,66.44
2018-11-06T09:13:20.289Z,65.45
2018-11-06T09:15:52.392Z,62.94
2018-11-06T09:18:26.849Z,61.53
2018-11-06T09:20:59.921Z,60.46
2018-11-06T09:23:28.593Z,59.46
2018-11-06T09:26:05.608Z,59.23
2018-11-06T09:28:34.763Z,59.33
2018-11-06T09:31:05.199Z,58.97
2018-11-06T09:33:36.035Z,58.22
2018-11-06T09:36:05.799Z,57.96
2018-11-06T09:38:34.964Z,58.82
2018-11-06T09:41:05.648Z,60.53
2018-11-06T09:43:37.924Z,62.58
2018-11-06T09:46:06.841Z,62.17
2018-11-06T09:48:38.176Z,62.58
2018-11-06T09:51:08.399Z,61.14
2018-11-06T09:53:37.855Z,61.00
2018-11-06T09:56:07.432Z,61.07
2018-11-06T09:58:38.965Z,58.82
2018-11-06T10:01:08.052Z,57.42
2018-11-06T10:03:36.735Z,57.20
2018-11-06T10:06:06.781Z,57.16
2018-11-06T10:08:36.718Z,56.44
2018-11-06T10:11:05.772Z,55.65
2018-11-06T10:13:34.988Z,56.52
2018-11-06T10:16:04.040Z,56.16
2018-11-06T10:21:07.202Z,56.06
2018-11-06T10:23:38.712Z,54.21
2018-11-06T10:26:08.210Z,55.19
2018-11-06T10:28:37.262Z,55.50
2018-11-06T10:31:07.011Z,54.92
2018-11-06T10:33:36.910Z,56.29
2018-11-06T10:36:07.468Z,56.42
2018-11-06T10:38:46.366Z,56.07
2018-11-06T10:41:16.120Z,55.92
2018-11-06T10:43:46.656Z,55.86
2018-11-06T10:46:16.131Z,55.56
2018-11-06T10:48:45.700Z,54.31
2018-11-06T10:51:17.237Z,53.76
2018-11-06T10:53:47.360Z,55.04
2018-11-06T10:56:16.823Z,54.65
2018-11-06T10:58:46.639Z,55.52
2018-11-06T11:01:29.582Z,55.41
2018-11-06T11:04:04.213Z,54.67
2018-11-06T11:06:33.739Z,54.35
2018-11-06T11:09:03.655Z,54.05
2018-11-06T11:11:32.932Z,54.35
2018-11-06T11:14:01.526Z,54.57
2018-11-06T11:16:31.965Z,55.53
2018-11-06T11:19:02.968Z,55.19
2018-11-06T11:21:33.651Z,56.02
2018-11-06T11:24:05.689Z,57.71
2018-11-06T11:26:35.927Z,58.11
2018-11-06T11:29:05.806Z,57.37
2018-11-06T11:31:34.862Z,56.73
2018-11-06T11:34:03.913Z,55.21
2018-11-06T11:36:33.421Z,54.75
2018-11-06T11:39:02.659Z,53.48
2018-11-06T11:41:31.984Z,52.35
2018-11-06T11:44:04.544Z,52.03
2018-11-06T11:46:33.855Z,52.40
2018-11-06T11:49:03.409Z,52.44
2018-11-06T11:51:32.144Z,52.21
2018-11-06T11:54:03.649Z,52.77
2018-11-06T11:56:33.100Z,53.00
2018-11-06T11:59:03.178Z,53.02
2018-11-06T12:01:34.151Z,52.42
2018-11-06T12:04:05.031Z,52.37
2018-11-06T12:06:34.144Z,52.07
2018-11-06T12:09:05.561Z,53.46
2018-11-06T12:11:35.677Z,53.03
2018-11-06T12:14:04.835Z,54.32
2018-11-06T12:16:35.437Z,53.77
2018-11-06T12:19:06.079Z,53.14
2018-11-06T12:21:36.095Z,51.70
2018-11-06T12:24:06.320Z,51.54
2018-11-06T12:26:36.841Z,51.66
2018-11-06T12:29:07.076Z,51.65
2018-11-06T12:31:37.900Z,51.29
2018-11-06T12:34:08.742Z,50.24
2018-11-06T12:36:39.107Z,49.98
2018-11-06T12:39:11.572Z,50.09
2018-11-06T12:41:40.637Z,50.81
2018-11-06T12:44:10.616Z,50.58
2018-11-06T12:46:41.133Z,50.71
2018-11-06T12:49:11.196Z,51.60
2018-11-06T12:51:40.239Z,51.21
2018-11-06T12:54:10.703Z,50.43
2018-11-06T12:56:59.876Z,50.06
2018-11-06T12:59:36.258Z,50.42
2018-11-06T13:02:08.059Z,49.54
2018-11-06T13:04:40.571Z,49.21
2018-11-06T13:07:10.231Z,50.34
2018-11-06T13:09:41.039Z,50.98
2018-11-06T13:12:10.725Z,50.25
2018-11-06T13:14:40.300Z,50.34
2018-11-06T13:17:09.911Z,51.42
2018-11-06T13:19:40.449Z,50.30
2018-11-06T13:22:10.034Z,49.99
2018-11-06T13:24:39.902Z,49.38
2018-11-06T13:27:09.820Z,49.92
2018-11-06T13:29:54.822Z,49.33
2018-11-06T13:32:24.177Z,49.44
2018-11-06T13:34:53.481Z,48.27
2018-11-06T13:37:23.568Z,48.38
2018-11-06T13:39:52.835Z,48.85
2018-11-06T13:42:23.940Z,49.76
2018-11-06T13:44:54.192Z,50.63
2018-11-06T13:47:24.275Z,51.80
2018-11-06T13:49:54.073Z,52.23
2018-11-06T13:52:27.691Z,52.10
2018-11-06T13:54:56.193Z,52.41
2018-11-06T13:57:26.144Z,53.21
2018-11-06T13:59:56.453Z,51.88
2018-11-06T14:02:26.836Z,52.62
2018-11-06T14:04:56.476Z,51.81
2018-11-06T14:07:27.704Z,52.10
2018-11-06T14:09:57.267Z,52.49
2018-11-06T14:12:28.135Z,52.25
2018-11-06T14:14:58.276Z,53.14
2018-11-06T14:17:27.713Z,52.35
2018-11-06T14:19:58.358Z,52.46
2018-11-06T14:22:27.502Z,52.54
2018-11-06T14:24:56.516Z,53.10
2018-11-06T14:27:26.144Z,52.98
2018-11-06T14:29:56.222Z,53.14
2018-11-06T14:32:31.728Z,53.43
2018-11-06T14:35:01.439Z,53.63
2018-11-06T14:37:30.765Z,53.49
2018-11-06T14:39:59.578Z,53.10
2018-11-06T14:42:29.557Z,53.62
2018-11-06T14:45:00.066Z,53.95
2018-11-06T14:47:29.052Z,54.88
2018-11-06T14:50:03.485Z,53.10
2018-11-06T14:52:34.816Z,52.78
2018-11-06T14:55:04.932Z,53.71
2018-11-06T14:57:33.926Z,53.28
2018-11-06T15:00:03.018Z,53.88
2018-11-06T15:02:32.865Z,55.54
2018-11-06T15:05:02.508Z,54.96
2018-11-06T15:07:34.025Z,55.58
2018-11-06T15:10:04.298Z,54.74
2018-11-06T15:12:34.300Z,53.28
2018-11-06T15:15:03.676Z,53.36
2018-11-06T15:17:33.749Z,54.60
2018-11-06T15:20:03.050Z,54.85
2018-11-06T15:22:33.332Z,56.18
2018-11-06T15:25:02.887Z,55.63
2018-11-06T15:27:32.520Z,55.35
2018-11-06T15:30:03.650Z,55.22
2018-11-06T15:32:33.201Z,55.57
2018-11-06T15:35:04.741Z,59.75
2018-11-06T15:37:33.918Z,59.07
2018-11-06T15:40:04.704Z,58.92
2018-11-06T15:42:33.817Z,62.87
2018-11-06T15:45:04.846Z,65.27
2018-11-06T15:47:34.879Z,64.25
2018-11-06T15:50:04.280Z,65.38
2018-11-06T15:52:35.971Z,65.27
2018-11-06T15:55:06.088Z,66.23
2018-11-06T15:57:37.803Z,67.06
2018-11-06T16:00:18.389Z,67.74
2018-11-06T16:02:48.416Z,66.85
2018-11-06T16:05:17.681Z,67.33
2018-11-06T16:07:47.981Z,69.27
2018-11-06T16:10:18.655Z,71.06
2018-11-06T16:12:48.312Z,71.94
2018-11-06T16:15:17.375Z,71.76
2018-11-06T16:17:48.619Z,72.27
2018-11-06T16:20:18.745Z,70.77
2018-11-06T16:22:47.710Z,68.26
2018-11-06T16:25:18.012Z,65.98
2018-11-06T16:27:49.051Z,65.51
2018-11-06T16:30:19.255Z,64.58
2018-11-06T16:32:50.160Z,64.58
2018-11-06T16:35:25.167Z,64.36
2018-11-06T16:37:56.584Z,64.28
2018-11-06T16:40:27.311Z,64.28
2018-11-06T16:42:57.443Z,65.60
2018-11-06T16:45:26.562Z,63.83
2018-11-06T16:47:56.946Z,65.25
2018-11-06T16:50:26.552Z,64.73
2018-11-06T16:52:56.744Z,64.13
2018-11-06T16:55:34.287Z,64.82
2018-11-06T16:58:02.868Z,65.05
2018-11-06T17:00:32.688Z,64.40
2018-11-06T17:03:02.884Z,65.36
2018-11-06T17:05:31.974Z,65.08
2018-11-06T17:08:05.942Z,66.73
2018-11-06T17:10:35.511Z,67.88
2018-11-06T17:13:05.620Z,68.41
2018-11-06T17:15:34.346Z,68.11
2018-11-06T17:18:05.612Z,68.38
2018-11-06T17:20:34.651Z,67.58
2018-11-06T17:23:05.587Z,67.89
2018-11-06T17:25:34.893Z,66.97
2018-11-06T17:28:05.336Z,67.83
2018-11-06T17:30:34.774Z,68.45
2018-11-06T17:33:05.577Z,66.37
2018-11-06T17:35:37.087Z,66.72
2018-11-06T17:38:06.381Z,67.02
2018-11-06T17:40:37.570Z,66.37
2018-11-06T17:43:21.996Z,66.93
2018-11-06T17:52:37.078Z,69.14
2018-11-06T17:55:06.552Z,69.06
2018-11-06T17:57:37.039Z,70.07
2018-11-06T18:00:09.596Z,69.11
2018-11-06T18:02:39.160Z,69.05
2018-11-06T18:05:07.846Z,67.28
2018-11-06T18:07:37.465Z,66.93
2018-11-06T18:10:07.449Z,65.93
2018-11-06T18:12:42.887Z,66.55
2018-11-06T18:15:11.435Z,68.01
2018-11-06T18:17:42.169Z,67.61
2018-11-06T18:20:12.235Z,68.28
2018-11-06T18:25:18.768Z,68.54
2018-11-06T18:27:49.523Z,67.84
2018-11-06T18:30:20.898Z,68.51
2018-11-06T18:32:50.560Z,68.24
2018-11-06T18:35:21.093Z,67.21
2018-11-06T18:37:51.533Z,66.65
2018-11-06T18:40:21.588Z,67.80
2018-11-06T18:42:51.297Z,67.50
2018-11-06T18:45:21.336Z,68.08
2018-11-06T18:47:50.532Z,67.68
2018-11-06T18:50:20.427Z,66.54
2018-11-06T18:52:52.011Z,66.55
2018-11-06T18:55:21.809Z,65.68
2018-11-06T18:57:52.259Z,66.36
2018-11-06T19:00:23.061Z,64.00
2018-11-06T19:02:54.119Z,62.66
2018-11-06T19:05:25.248Z,62.05
2018-11-06T19:07:55.040Z,62.87
2018-11-06T19:10:24.900Z,60.51
2018-11-06T19:12:54.367Z,60.15
2018-11-06T19:15:25.563Z,60.52
2018-11-06T19:17:55.300Z,60.95
2018-11-06T19:20:25.585Z,60.74
2018-11-06T19:22:55.935Z,62.10
2018-11-06T19:25:26.631Z,60.53
2018-11-06T19:27:55.742Z,61.98
2018-11-06T19:30:24.297Z,63.52
2018-11-06T19:32:53.875Z,62.48
2018-11-06T19:35:23.664Z,63.26
2018-11-06T19:37:53.172Z,63.43
2018-11-06T19:40:22.953Z,60.69
2018-11-06T19:42:52.456Z,60.09
2018-11-06T19:45:21.358Z,60.89
2018-11-06T19:47:52.790Z,60.61
2018-11-06T19:50:22.311Z,60.26
2018-11-06T19:52:52.371Z,60.26
2018-11-06T19:55:21.936Z,60.12
2018-11-06T19:57:54.472Z,62.71
2018-11-06T20:00:24.782Z,61.24
2018-11-06T20:02:59.196Z,62.43
2018-11-06T20:05:29.413Z,61.12
2018-11-06T20:07:58.178Z,61.52
2018-11-06T20:10:28.375Z,61.30
2018-11-06T20:12:58.191Z,61.40
2018-11-06T20:15:28.540Z,61.29
2018-11-06T20:17:58.988Z,61.08
2018-11-06T20:20:28.583Z,60.66
2018-11-06T20:22:59.548Z,60.87
2018-11-06T20:25:29.200Z,61.53
2018-11-06T20:27:58.827Z,62.23
2018-11-06T20:30:28.860Z,62.76
2018-11-06T20:32:58.070Z,62.32
2018-11-06T20:35:27.117Z,62.77
2018-11-06T20:37:57.237Z,62.28
2018-11-06T20:40:28.539Z,62.45
2018-11-06T20:42:59.079Z,62.66
2018-11-06T20:45:28.616Z,62.17
2018-11-06T20:47:57.647Z,61.62
2018-11-06T20:50:26.672Z,62.83
2018-11-06T20:52:56.850Z,62.81
2018-11-06T20:55:25.690Z,62.51
2018-11-06T20:57:58.112Z,62.73
2018-11-06T21:00:29.933Z,63.54
2018-11-06T21:03:00.464Z,64.09
2018-11-06T21:05:31.117Z,64.61
2018-11-06T21:08:00.212Z,63.54
2018-11-06T21:10:30.786Z,64.74
2018-11-06T21:13:00.679Z,63.05
2018-11-06T21:15:29.423Z,63.51
2018-11-06T21:17:58.198Z,62.15
2018-11-06T21:20:27.894Z,62.12
2018-11-06T21:22:57.191Z,64.55
2018-11-06T21:25:28.241Z,64.84
2018-11-06T21:27:58.372Z,66.64
2018-11-06T21:30:28.737Z,68.25
2018-11-06T21:32:57.489Z,68.33
2018-11-06T21:35:27.414Z,67.84
2018-11-06T21:37:57.720Z,65.64
2018-11-06T21:40:29.890Z,64.39
2018-11-06T21:43:00.039Z,64.71
2018-11-06T21:45:28.619Z,64.16
2018-11-06T21:48:00.689Z,65.65
2018-11-06T21:50:29.748Z,64.73
2018-11-06T21:52:59.788Z,64.49
2018-11-06T21:55:29.821Z,64.75
2018-11-06T21:58:00.628Z,65.47
2018-11-06T22:00:30.839Z,65.06
2018-11-06T22:02:59.576Z,63.53
2018-11-06T22:05:29.178Z,63.30
2018-11-06T22:07:59.177Z,62.66
2018-11-06T22:10:29.572Z,63.44
2018-11-06T22:12:59.648Z,65.85
2018-11-06T22:15:31.273Z,70.04
2018-11-06T22:18:00.543Z,70.82
2018-11-06T22:20:30.392Z,72.75
2018-11-06T22:22:59.688Z,72.46
2018-11-06T22:25:28.711Z,72.11
2018-11-06T22:27:58.394Z,73.00
2018-11-06T22:30:29.229Z,72.69
2018-11-06T22:32:58.329Z,71.53
2018-11-06T22:35:27.693Z,71.54
2018-11-06T22:37:57.052Z,71.90
2018-11-06T22:40:26.388Z,73.93
2018-11-06T22:42:57.517Z,74.22
2018-11-06T22:45:27.011Z,74.79
2018-11-06T22:47:57.493Z,74.95
2018-11-06T22:50:27.291Z,74.74
2018-11-06T22:52:55.813Z,74.54
2018-11-06T22:55:25.459Z,74.38
2018-11-06T22:57:55.300Z,75.13
2018-11-06T23:00:29.491Z,75.80
2018-11-06T23:03:01.387Z,75.51
2018-11-06T23:05:30.739Z,76.90
2018-11-06T23:08:05.295Z,76.56
2018-11-06T23:10:34.169Z,75.54
2018-11-06T23:13:02.923Z,74.38
2018-11-06T23:15:32.262Z,72.80
2018-11-06T23:18:01.713Z,71.25
2018-11-06T23:20:30.567Z,68.15
2018-11-06T23:22:59.198Z,67.58
2018-11-06T23:25:29.183Z,66.97
2018-11-06T23:27:58.576Z,66.32
2018-11-06T23:30:29.552Z,66.10
2018-11-06T23:32:59.172Z,66.27
2018-11-06T23:35:28.525Z,67.26
2018-11-06T23:37:58.079Z,68.42
2018-11-06T23:40:27.296Z,69.28
2018-11-06T23:42:57.682Z,69.05
2018-11-06T23:45:27.532Z,68.13
2018-11-06T23:47:56.036Z,70.48
2018-11-06T23:50:25.508Z,71.71
2018-11-06T23:52:55.885Z,72.93
2018-11-06T23:55:25.298Z,73.98
2018-11-06T23:57:54.949Z,73.98
